sensor_id;sensor_type;location;lat;lon;timestamp;P1;durP1;ratioP1;P2;durP2;ratioP2
71947;SDS011;63257;55.082;38.772;2022-11-20T00:03:42;16.88;;;6.82;;
71947;SDS011;63257;55.082;38.772;2022-11-20T00:06:09;14.80;;;6.35;;
71947;SDS011;63257;55.082;38.772;2022-11-20T00:08:36;15.93;;;6.70;;
71947;SDS011;63257;55.082;38.772;2022-11-20T00:11:16;16.98;;;6.50;;
71947;SDS011;63257;55.082;38.772;2022-11-20T00:13:47;16.65;;;6.90;;
71947;SDS011;63257;55.082;38.772;2022-11-20T00:16:15;15.73;;;6.87;;
71947;SDS011;63257;55.082;38.772;2022-11-20T00:18:42;16.25;;;6.60;;
71947;SDS011;63257;55.082;38.772;2022-11-20T00:21:13;16.25;;;7.32;;
71947;SDS011;63257;55.082;38.772;2022-11-20T00:23:40;16.25;;;6.65;;
71947;SDS011;63257;55.082;38.772;2022-11-20T00:26:12;16.05;;;6.30;;
71947;SDS011;63257;55.082;38.772;2022-11-20T00:28:40;15.75;;;7.00;;
71947;SDS011;63257;55.082;38.772;2022-11-20T00:31:07;15.98;;;6.80;;
71947;SDS011;63257;55.082;38.772;2022-11-20T00:33:38;14.47;;;6.00;;
71947;SDS011;63257;55.082;38.772;2022-11-20T00:36:14;17.65;;;7.20;;
71947;SDS011;63257;55.082;38.772;2022-11-20T00:38:42;14.98;;;6.47;;
71947;SDS011;63257;55.082;38.772;2022-11-20T00:41:09;14.20;;;6.20;;
71947;SDS011;63257;55.082;38.772;2022-11-20T00:43:37;16.67;;;6.97;;
71947;SDS011;63257;55.082;38.772;2022-11-20T00:46:05;17.70;;;6.78;;
71947;SDS011;63257;55.082;38.772;2022-11-20T00:48:39;15.27;;;6.68;;
71947;SDS011;63257;55.082;38.772;2022-11-20T00:51:08;16.55;;;6.65;;
71947;SDS011;63257;55.082;38.772;2022-11-20T00:53:34;16.88;;;6.50;;
71947;SDS011;63257;55.082;38.772;2022-11-20T00:56:04;16.87;;;7.20;;
71947;SDS011;63257;55.082;38.772;2022-11-20T00:58:36;16.20;;;6.90;;
71947;SDS011;63257;55.082;38.772;2022-11-20T01:01:04;15.95;;;7.05;;
71947;SDS011;63257;55.082;38.772;2022-11-20T01:03:35;15.05;;;6.53;;
71947;SDS011;63257;55.082;38.772;2022-11-20T01:06:10;15.03;;;6.30;;
71947;SDS011;63257;55.082;38.772;2022-11-20T01:08:38;15.75;;;6.35;;
71947;SDS011;63257;55.082;38.772;2022-11-20T01:11:07;15.10;;;6.20;;
71947;SDS011;63257;55.082;38.772;2022-11-20T01:13:35;13.67;;;6.17;;
71947;SDS011;63257;55.082;38.772;2022-11-20T01:16:12;13.57;;;6.05;;
71947;SDS011;63257;55.082;38.772;2022-11-20T01:18:49;12.23;;;5.90;;
71947;SDS011;63257;55.082;38.772;2022-11-20T01:21:18;12.80;;;5.65;;
71947;SDS011;63257;55.082;38.772;2022-11-20T01:23:46;15.27;;;5.63;;
71947;SDS011;63257;55.082;38.772;2022-11-20T01:26:14;13.88;;;6.03;;
71947;SDS011;63257;55.082;38.772;2022-11-20T01:28:42;15.32;;;6.07;;
71947;SDS011;63257;55.082;38.772;2022-11-20T01:31:12;14.47;;;6.20;;
71947;SDS011;63257;55.082;38.772;2022-11-20T01:33:42;14.10;;;5.97;;
71947;SDS011;63257;55.082;38.772;2022-11-20T01:36:09;13.35;;;5.95;;
71947;SDS011;63257;55.082;38.772;2022-11-20T01:38:35;15.10;;;5.97;;
71947;SDS011;63257;55.082;38.772;2022-11-20T01:41:01;14.68;;;6.00;;
71947;SDS011;63257;55.082;38.772;2022-11-20T01:43:27;13.68;;;5.90;;
71947;SDS011;63257;55.082;38.772;2022-11-20T01:53:55;15.60;;;6.03;;
71947;SDS011;63257;55.082;38.772;2022-11-20T01:56:25;14.87;;;5.90;;
71947;SDS011;63257;55.082;38.772;2022-11-20T01:58:54;13.25;;;5.80;;
71947;SDS011;63257;55.082;38.772;2022-11-20T02:01:23;14.25;;;6.00;;
71947;SDS011;63257;55.082;38.772;2022-11-20T02:03:49;14.97;;;6.47;;
71947;SDS011;63257;55.082;38.772;2022-11-20T02:08:57;14.20;;;5.85;;
71947;SDS011;63257;55.082;38.772;2022-11-20T02:11:23;14.30;;;6.20;;
71947;SDS011;63257;55.082;38.772;2022-11-20T02:13:49;15.10;;;6.22;;
71947;SDS011;63257;55.082;38.772;2022-11-20T02:16:17;12.98;;;5.90;;
71947;SDS011;63257;55.082;38.772;2022-11-20T02:18:46;14.27;;;5.73;;
71947;SDS011;63257;55.082;38.772;2022-11-20T02:23:58;15.80;;;6.00;;
71947;SDS011;63257;55.082;38.772;2022-11-20T02:26:25;14.20;;;5.93;;
71947;SDS011;63257;55.082;38.772;2022-11-20T02:28:54;14.85;;;5.95;;
71947;SDS011;63257;55.082;38.772;2022-11-20T02:31:20;14.77;;;6.00;;
71947;SDS011;63257;55.082;38.772;2022-11-20T02:33:46;13.27;;;5.73;;
71947;SDS011;63257;55.082;38.772;2022-11-20T02:36:13;15.15;;;5.65;;
71947;SDS011;63257;55.082;38.772;2022-11-20T02:38:41;15.35;;;6.00;;
71947;SDS011;63257;55.082;38.772;2022-11-20T02:41:08;14.13;;;5.77;;
71947;SDS011;63257;55.082;38.772;2022-11-20T02:43:34;13.88;;;5.95;;
71947;SDS011;63257;55.082;38.772;2022-11-20T02:46:01;12.25;;;5.80;;
71947;SDS011;63257;55.082;38.772;2022-11-20T02:48:26;16.38;;;6.15;;
71947;SDS011;63257;55.082;38.772;2022-11-20T02:50:52;14.18;;;6.00;;
71947;SDS011;63257;55.082;38.772;2022-11-20T02:53:18;12.50;;;5.53;;
71947;SDS011;63257;55.082;38.772;2022-11-20T02:55:44;14.63;;;6.55;;
71947;SDS011;63257;55.082;38.772;2022-11-20T02:58:10;12.23;;;5.63;;
71947;SDS011;63257;55.082;38.772;2022-11-20T03:00:36;13.57;;;5.53;;
71947;SDS011;63257;55.082;38.772;2022-11-20T03:03:02;12.93;;;5.87;;
71947;SDS011;63257;55.082;38.772;2022-11-20T03:05:27;15.25;;;5.93;;
71947;SDS011;63257;55.082;38.772;2022-11-20T03:07:53;14.52;;;6.85;;
71947;SDS011;63257;55.082;38.772;2022-11-20T03:10:20;14.57;;;6.33;;
71947;SDS011;63257;55.082;38.772;2022-11-20T03:12:46;13.73;;;5.95;;
71947;SDS011;63257;55.082;38.772;2022-11-20T03:15:12;14.40;;;6.03;;
71947;SDS011;63257;55.082;38.772;2022-11-20T03:17:37;17.40;;;6.17;;
71947;SDS011;63257;55.082;38.772;2022-11-20T03:20:03;14.55;;;6.30;;
71947;SDS011;63257;55.082;38.772;2022-11-20T03:22:31;14.67;;;6.23;;
71947;SDS011;63257;55.082;38.772;2022-11-20T03:24:57;15.73;;;6.55;;
71947;SDS011;63257;55.082;38.772;2022-11-20T03:27:23;15.40;;;6.28;;
71947;SDS011;63257;55.082;38.772;2022-11-20T03:29:49;14.43;;;6.27;;
71947;SDS011;63257;55.082;38.772;2022-11-20T03:32:15;14.93;;;6.22;;
71947;SDS011;63257;55.082;38.772;2022-11-20T03:34:40;15.13;;;5.80;;
71947;SDS011;63257;55.082;38.772;2022-11-20T03:37:06;15.65;;;6.60;;
71947;SDS011;63257;55.082;38.772;2022-11-20T03:39:32;15.30;;;6.20;;
71947;SDS011;63257;55.082;38.772;2022-11-20T03:41:58;13.30;;;6.00;;
71947;SDS011;63257;55.082;38.772;2022-11-20T03:44:24;13.77;;;6.37;;
71947;SDS011;63257;55.082;38.772;2022-11-20T03:46:49;14.02;;;6.22;;
71947;SDS011;63257;55.082;38.772;2022-11-20T03:49:15;14.60;;;6.13;;
71947;SDS011;63257;55.082;38.772;2022-11-20T03:51:41;13.02;;;5.80;;
71947;SDS011;63257;55.082;38.772;2022-11-20T03:54:07;14.13;;;5.63;;
71947;SDS011;63257;55.082;38.772;2022-11-20T03:56:36;14.38;;;5.97;;
71947;SDS011;63257;55.082;38.772;2022-11-20T03:59:03;14.52;;;6.13;;
71947;SDS011;63257;55.082;38.772;2022-11-20T04:01:31;15.25;;;6.13;;
71947;SDS011;63257;55.082;38.772;2022-11-20T04:03:58;17.23;;;6.78;;
71947;SDS011;63257;55.082;38.772;2022-11-20T04:06:28;14.80;;;6.40;;
71947;SDS011;63257;55.082;38.772;2022-11-20T04:08:56;16.13;;;6.80;;
71947;SDS011;63257;55.082;38.772;2022-11-20T04:11:24;17.83;;;6.97;;
71947;SDS011;63257;55.082;38.772;2022-11-20T04:13:52;14.10;;;6.30;;
71947;SDS011;63257;55.082;38.772;2022-11-20T04:16:23;16.52;;;6.53;;
71947;SDS011;63257;55.082;38.772;2022-11-20T04:18:54;14.27;;;6.13;;
71947;SDS011;63257;55.082;38.772;2022-11-20T04:21:23;14.93;;;6.25;;
71947;SDS011;63257;55.082;38.772;2022-11-20T04:23:50;14.73;;;6.43;;
71947;SDS011;63257;55.082;38.772;2022-11-20T04:26:18;14.85;;;6.50;;
71947;SDS011;63257;55.082;38.772;2022-11-20T04:28:44;16.02;;;7.30;;
71947;SDS011;63257;55.082;38.772;2022-11-20T04:31:11;16.63;;;6.80;;
71947;SDS011;63257;55.082;38.772;2022-11-20T04:33:39;17.63;;;6.77;;
71947;SDS011;63257;55.082;38.772;2022-11-20T04:36:06;14.95;;;6.50;;
71947;SDS011;63257;55.082;38.772;2022-11-20T04:38:43;16.75;;;6.70;;
71947;SDS011;63257;55.082;38.772;2022-11-20T04:41:14;16.98;;;6.47;;
71947;SDS011;63257;55.082;38.772;2022-11-20T04:43:46;15.95;;;5.88;;
71947;SDS011;63257;55.082;38.772;2022-11-20T04:46:14;14.10;;;6.15;;
71947;SDS011;63257;55.082;38.772;2022-11-20T04:48:40;12.90;;;5.35;;
71947;SDS011;63257;55.082;38.772;2022-11-20T04:51:08;15.17;;;6.17;;
71947;SDS011;63257;55.082;38.772;2022-11-20T04:53:34;14.75;;;6.63;;
71947;SDS011;63257;55.082;38.772;2022-11-20T04:56:01;16.67;;;6.60;;
71947;SDS011;63257;55.082;38.772;2022-11-20T04:58:31;14.25;;;6.03;;
71947;SDS011;63257;55.082;38.772;2022-11-20T05:03:50;15.02;;;6.55;;
71947;SDS011;63257;55.082;38.772;2022-11-20T05:06:17;14.57;;;6.32;;
71947;SDS011;63257;55.082;38.772;2022-11-20T05:08:44;13.55;;;6.30;;
71947;SDS011;63257;55.082;38.772;2022-11-20T05:11:14;16.52;;;6.65;;
71947;SDS011;63257;55.082;38.772;2022-11-20T05:13:42;15.10;;;6.60;;
71947;SDS011;63257;55.082;38.772;2022-11-20T05:16:09;15.63;;;6.72;;
71947;SDS011;63257;55.082;38.772;2022-11-20T05:18:43;14.95;;;6.47;;
71947;SDS011;63257;55.082;38.772;2022-11-20T05:21:10;17.10;;;7.17;;
71947;SDS011;63257;55.082;38.772;2022-11-20T05:23:37;15.57;;;6.72;;
71947;SDS011;63257;55.082;38.772;2022-11-20T05:26:03;25.30;;;9.25;;
71947;SDS011;63257;55.082;38.772;2022-11-20T05:28:30;18.63;;;7.30;;
71947;SDS011;63257;55.082;38.772;2022-11-20T05:31:04;20.50;;;8.10;;
71947;SDS011;63257;55.082;38.772;2022-11-20T05:33:34;16.38;;;7.00;;
71947;SDS011;63257;55.082;38.772;2022-11-20T05:36:01;16.40;;;7.10;;
71947;SDS011;63257;55.082;38.772;2022-11-20T05:38:27;15.02;;;6.88;;
71947;SDS011;63257;55.082;38.772;2022-11-20T05:40:54;19.13;;;7.40;;
71947;SDS011;63257;55.082;38.772;2022-11-20T05:43:20;19.50;;;7.82;;
71947;SDS011;63257;55.082;38.772;2022-11-20T05:45:55;20.73;;;8.17;;
71947;SDS011;63257;55.082;38.772;2022-11-20T05:48:21;16.65;;;7.20;;
71947;SDS011;63257;55.082;38.772;2022-11-20T05:50:47;16.90;;;7.13;;
71947;SDS011;63257;55.082;38.772;2022-11-20T05:53:13;28.83;;;10.73;;
71947;SDS011;63257;55.082;38.772;2022-11-20T05:55:39;15.88;;;7.20;;
71947;SDS011;63257;55.082;38.772;2022-11-20T05:58:05;18.23;;;7.22;;
71947;SDS011;63257;55.082;38.772;2022-11-20T06:00:31;15.15;;;6.80;;
71947;SDS011;63257;55.082;38.772;2022-11-20T06:02:56;17.92;;;7.55;;
71947;SDS011;63257;55.082;38.772;2022-11-20T06:05:22;46.60;;;17.93;;
71947;SDS011;63257;55.082;38.772;2022-11-20T06:07:48;27.00;;;10.60;;
71947;SDS011;63257;55.082;38.772;2022-11-20T06:10:14;38.90;;;13.63;;
71947;SDS011;63257;55.082;38.772;2022-11-20T06:12:40;22.27;;;8.43;;
71947;SDS011;63257;55.082;38.772;2022-11-20T06:15:06;22.73;;;9.45;;
71947;SDS011;63257;55.082;38.772;2022-11-20T06:17:32;21.08;;;8.95;;
71947;SDS011;63257;55.082;38.772;2022-11-20T06:19:58;20.95;;;8.32;;
71947;SDS011;63257;55.082;38.772;2022-11-20T06:22:23;21.30;;;7.80;;
71947;SDS011;63257;55.082;38.772;2022-11-20T06:24:49;19.30;;;8.07;;
71947;SDS011;63257;55.082;38.772;2022-11-20T06:27:16;17.52;;;7.30;;
71947;SDS011;63257;55.082;38.772;2022-11-20T06:29:42;16.33;;;7.18;;
71947;SDS011;63257;55.082;38.772;2022-11-20T06:32:08;16.40;;;7.23;;
71947;SDS011;63257;55.082;38.772;2022-11-20T06:34:34;19.30;;;7.95;;
71947;SDS011;63257;55.082;38.772;2022-11-20T06:36:59;15.73;;;7.43;;
71947;SDS011;63257;55.082;38.772;2022-11-20T06:39:26;16.17;;;7.18;;
71947;SDS011;63257;55.082;38.772;2022-11-20T06:41:52;19.63;;;7.55;;
71947;SDS011;63257;55.082;38.772;2022-11-20T06:44:18;18.47;;;7.83;;
71947;SDS011;63257;55.082;38.772;2022-11-20T06:46:44;16.05;;;7.60;;
71947;SDS011;63257;55.082;38.772;2022-11-20T06:49:10;17.63;;;7.57;;
71947;SDS011;63257;55.082;38.772;2022-11-20T06:51:36;18.42;;;7.95;;
71947;SDS011;63257;55.082;38.772;2022-11-20T06:54:02;19.73;;;7.75;;
71947;SDS011;63257;55.082;38.772;2022-11-20T06:56:27;16.10;;;7.83;;
71947;SDS011;63257;55.082;38.772;2022-11-20T06:58:53;16.58;;;8.18;;
71947;SDS011;63257;55.082;38.772;2022-11-20T07:01:20;18.00;;;8.37;;
71947;SDS011;63257;55.082;38.772;2022-11-20T07:03:48;21.00;;;9.32;;
71947;SDS011;63257;55.082;38.772;2022-11-20T07:06:15;21.63;;;8.73;;
71947;SDS011;63257;55.082;38.772;2022-11-20T07:08:40;19.73;;;8.93;;
71947;SDS011;63257;55.082;38.772;2022-11-20T07:11:06;19.52;;;8.30;;
71947;SDS011;63257;55.082;38.772;2022-11-20T07:13:34;21.77;;;8.57;;
71947;SDS011;63257;55.082;38.772;2022-11-20T07:16:00;18.83;;;8.32;;
71947;SDS011;63257;55.082;38.772;2022-11-20T07:18:31;21.73;;;9.90;;
71947;SDS011;63257;55.082;38.772;2022-11-20T07:21:01;17.73;;;8.30;;
71947;SDS011;63257;55.082;38.772;2022-11-20T07:23:31;17.85;;;7.85;;
71947;SDS011;63257;55.082;38.772;2022-11-20T07:25:57;20.35;;;8.27;;
71947;SDS011;63257;55.082;38.772;2022-11-20T07:28:23;19.67;;;8.73;;
71947;SDS011;63257;55.082;38.772;2022-11-20T07:30:49;18.13;;;8.48;;
71947;SDS011;63257;55.082;38.772;2022-11-20T07:33:16;18.38;;;8.40;;
71947;SDS011;63257;55.082;38.772;2022-11-20T07:35:43;19.27;;;8.50;;
71947;SDS011;63257;55.082;38.772;2022-11-20T07:38:09;19.02;;;7.70;;
71947;SDS011;63257;55.082;38.772;2022-11-20T07:40:35;21.77;;;8.43;;
71947;SDS011;63257;55.082;38.772;2022-11-20T07:43:00;16.90;;;7.20;;
71947;SDS011;63257;55.082;38.772;2022-11-20T07:45:26;19.02;;;7.85;;
71947;SDS011;63257;55.082;38.772;2022-11-20T07:47:52;16.37;;;7.33;;
71947;SDS011;63257;55.082;38.772;2022-11-20T07:50:18;17.63;;;7.20;;
71947;SDS011;63257;55.082;38.772;2022-11-20T07:52:45;15.33;;;7.53;;
71947;SDS011;63257;55.082;38.772;2022-11-20T07:55:11;15.70;;;7.05;;
71947;SDS011;63257;55.082;38.772;2022-11-20T07:57:38;18.30;;;7.45;;
71947;SDS011;63257;55.082;38.772;2022-11-20T08:00:05;18.25;;;7.80;;
71947;SDS011;63257;55.082;38.772;2022-11-20T08:02:40;20.40;;;7.63;;
71947;SDS011;63257;55.082;38.772;2022-11-20T08:05:07;18.20;;;7.65;;
71947;SDS011;63257;55.082;38.772;2022-11-20T08:07:35;17.25;;;7.55;;
71947;SDS011;63257;55.082;38.772;2022-11-20T08:10:09;18.73;;;7.90;;
71947;SDS011;63257;55.082;38.772;2022-11-20T08:12:45;19.23;;;7.70;;
71947;SDS011;63257;55.082;38.772;2022-11-20T08:15:33;15.98;;;7.05;;
71947;SDS011;63257;55.082;38.772;2022-11-20T08:18:03;16.77;;;7.57;;
71947;SDS011;63257;55.082;38.772;2022-11-20T08:20:32;16.98;;;8.00;;
71947;SDS011;63257;55.082;38.772;2022-11-20T08:22:59;18.10;;;7.60;;
71947;SDS011;63257;55.082;38.772;2022-11-20T08:25:31;22.38;;;8.18;;
71947;SDS011;63257;55.082;38.772;2022-11-20T08:27:58;17.02;;;7.63;;
71947;SDS011;63257;55.082;38.772;2022-11-20T08:30:25;16.48;;;6.97;;
71947;SDS011;63257;55.082;38.772;2022-11-20T08:32:54;19.48;;;7.32;;
71947;SDS011;63257;55.082;38.772;2022-11-20T08:35:20;18.07;;;8.47;;
71947;SDS011;63257;55.082;38.772;2022-11-20T08:37:47;16.75;;;7.70;;
71947;SDS011;63257;55.082;38.772;2022-11-20T08:40:13;20.92;;;8.18;;
71947;SDS011;63257;55.082;38.772;2022-11-20T08:42:48;18.30;;;7.50;;
71947;SDS011;63257;55.082;38.772;2022-11-20T08:45:16;17.30;;;7.60;;
71947;SDS011;63257;55.082;38.772;2022-11-20T08:47:44;23.17;;;8.15;;
71947;SDS011;63257;55.082;38.772;2022-11-20T08:50:11;18.77;;;7.90;;
71947;SDS011;63257;55.082;38.772;2022-11-20T08:52:39;22.80;;;9.52;;
71947;SDS011;63257;55.082;38.772;2022-11-20T08:55:05;18.77;;;8.63;;
71947;SDS011;63257;55.082;38.772;2022-11-20T08:57:32;20.33;;;8.73;;
71947;SDS011;63257;55.082;38.772;2022-11-20T08:59:58;19.45;;;8.57;;
71947;SDS011;63257;55.082;38.772;2022-11-20T09:02:24;18.65;;;7.90;;
71947;SDS011;63257;55.082;38.772;2022-11-20T09:04:50;21.77;;;7.70;;
71947;SDS011;63257;55.082;38.772;2022-11-20T09:07:16;20.75;;;8.38;;
71947;SDS011;63257;55.082;38.772;2022-11-20T09:09:43;18.67;;;8.52;;
71947;SDS011;63257;55.082;38.772;2022-11-20T09:12:09;17.10;;;7.53;;
71947;SDS011;63257;55.082;38.772;2022-11-20T09:14:35;17.98;;;8.07;;
71947;SDS011;63257;55.082;38.772;2022-11-20T09:17:00;16.73;;;7.53;;
71947;SDS011;63257;55.082;38.772;2022-11-20T09:19:26;17.58;;;7.60;;
71947;SDS011;63257;55.082;38.772;2022-11-20T09:21:53;19.35;;;8.40;;
71947;SDS011;63257;55.082;38.772;2022-11-20T09:24:19;17.63;;;7.57;;
71947;SDS011;63257;55.082;38.772;2022-11-20T09:26:46;21.20;;;8.65;;
71947;SDS011;63257;55.082;38.772;2022-11-20T09:29:12;18.45;;;7.78;;
71947;SDS011;63257;55.082;38.772;2022-11-20T09:31:38;19.00;;;8.07;;
71947;SDS011;63257;55.082;38.772;2022-11-20T09:34:03;18.65;;;7.40;;
71947;SDS011;63257;55.082;38.772;2022-11-20T09:36:29;19.40;;;7.90;;
71947;SDS011;63257;55.082;38.772;2022-11-20T09:38:55;18.55;;;7.85;;
71947;SDS011;63257;55.082;38.772;2022-11-20T09:44:03;20.52;;;8.93;;
71947;SDS011;63257;55.082;38.772;2022-11-20T09:51:48;23.85;;;9.52;;
71947;SDS011;63257;55.082;38.772;2022-11-20T09:54:27;21.17;;;9.07;;
71947;SDS011;63257;55.082;38.772;2022-11-20T09:57:05;17.90;;;9.13;;
71947;SDS011;63257;55.082;38.772;2022-11-20T09:59:43;25.08;;;11.40;;
71947;SDS011;63257;55.082;38.772;2022-11-20T10:07:39;19.90;;;8.57;;
71947;SDS011;63257;55.082;38.772;2022-11-20T10:10:13;19.90;;;7.65;;
71947;SDS011;63257;55.082;38.772;2022-11-20T10:15:36;21.30;;;9.00;;
71947;SDS011;63257;55.082;38.772;2022-11-20T10:20:46;19.53;;;8.80;;
71947;SDS011;63257;55.082;38.772;2022-11-20T10:23:42;24.42;;;9.43;;
71947;SDS011;63257;55.082;38.772;2022-11-20T10:26:22;21.02;;;8.50;;
71947;SDS011;63257;55.082;38.772;2022-11-20T10:29:18;21.43;;;8.23;;
71947;SDS011;63257;55.082;38.772;2022-11-20T10:31:56;21.25;;;8.48;;
71947;SDS011;63257;55.082;38.772;2022-11-20T10:34:27;20.70;;;8.27;;
71947;SDS011;63257;55.082;38.772;2022-11-20T10:36:55;18.92;;;6.88;;
71947;SDS011;63257;55.082;38.772;2022-11-20T10:40:20;22.60;;;8.50;;
71947;SDS011;63257;55.082;38.772;2022-11-20T10:42:49;20.20;;;8.55;;
71947;SDS011;63257;55.082;38.772;2022-11-20T10:45:27;22.08;;;8.77;;
71947;SDS011;63257;55.082;38.772;2022-11-20T10:48:21;25.43;;;9.23;;
71947;SDS011;63257;55.082;38.772;2022-11-20T10:50:52;26.42;;;9.20;;
71947;SDS011;63257;55.082;38.772;2022-11-20T10:53:54;19.85;;;7.55;;
71947;SDS011;63257;55.082;38.772;2022-11-20T10:59:25;27.95;;;9.20;;
71947;SDS011;63257;55.082;38.772;2022-11-20T11:02:17;28.25;;;8.88;;
71947;SDS011;63257;55.082;38.772;2022-11-20T11:04:48;24.88;;;9.82;;
71947;SDS011;63257;55.082;38.772;2022-11-20T11:07:33;30.65;;;9.77;;
71947;SDS011;63257;55.082;38.772;2022-11-20T11:10:14;24.95;;;10.38;;
71947;SDS011;63257;55.082;38.772;2022-11-20T11:12:46;26.25;;;9.48;;
71947;SDS011;63257;55.082;38.772;2022-11-20T11:15:58;23.57;;;8.33;;
71947;SDS011;63257;55.082;38.772;2022-11-20T11:18:04;21.85;;;8.20;;
71947;SDS011;63257;55.082;38.772;2022-11-20T11:20:31;27.95;;;10.70;;
71947;SDS011;63257;55.082;38.772;2022-11-20T11:22:58;22.87;;;8.93;;
71947;SDS011;63257;55.082;38.772;2022-11-20T11:25:26;27.00;;;10.07;;
71947;SDS011;63257;55.082;38.772;2022-11-20T11:28:20;23.35;;;9.70;;
71947;SDS011;63257;55.082;38.772;2022-11-20T11:30:50;27.10;;;10.27;;
71947;SDS011;63257;55.082;38.772;2022-11-20T11:33:21;24.10;;;10.38;;
71947;SDS011;63257;55.082;38.772;2022-11-20T11:35:50;28.08;;;12.23;;
71947;SDS011;63257;55.082;38.772;2022-11-20T11:38:27;28.70;;;11.70;;
71947;SDS011;63257;55.082;38.772;2022-11-20T11:40:56;29.03;;;10.40;;
71947;SDS011;63257;55.082;38.772;2022-11-20T11:43:28;29.00;;;11.30;;
71947;SDS011;63257;55.082;38.772;2022-11-20T11:51:52;32.00;;;10.90;;
71947;SDS011;63257;55.082;38.772;2022-11-20T11:54:24;35.50;;;12.68;;
71947;SDS011;63257;55.082;38.772;2022-11-20T11:56:53;30.10;;;11.75;;
71947;SDS011;63257;55.082;38.772;2022-11-20T11:59:25;32.15;;;11.88;;
71947;SDS011;63257;55.082;38.772;2022-11-20T12:02:24;27.52;;;9.55;;
71947;SDS011;63257;55.082;38.772;2022-11-20T12:05:44;34.80;;;11.43;;
71947;SDS011;63257;55.082;38.772;2022-11-20T12:08:02;18.97;;;7.13;;
71947;SDS011;63257;55.082;38.772;2022-11-20T12:10:50;27.40;;;9.65;;
71947;SDS011;63257;55.082;38.772;2022-11-20T12:15:59;28.53;;;9.43;;
71947;SDS011;63257;55.082;38.772;2022-11-20T12:18:28;26.50;;;9.35;;
71947;SDS011;63257;55.082;38.772;2022-11-20T12:32:17;23.38;;;9.38;;
71947;SDS011;63257;55.082;38.772;2022-11-20T12:54:58;25.38;;;9.38;;
71947;SDS011;63257;55.082;38.772;2022-11-20T12:58:04;23.77;;;9.48;;
71947;SDS011;63257;55.082;38.772;2022-11-20T13:00:38;28.30;;;9.88;;
71947;SDS011;63257;55.082;38.772;2022-11-20T13:08:53;20.77;;;7.72;;
71947;SDS011;63257;55.082;38.772;2022-11-20T13:11:26;25.50;;;9.43;;
71947;SDS011;63257;55.082;38.772;2022-11-20T13:19:21;17.95;;;7.95;;
71947;SDS011;63257;55.082;38.772;2022-11-20T13:21:48;19.13;;;7.80;;
71947;SDS011;63257;55.082;38.772;2022-11-20T13:26:45;19.75;;;7.80;;
71947;SDS011;63257;55.082;38.772;2022-11-20T13:29:12;22.60;;;8.10;;
71947;SDS011;63257;55.082;38.772;2022-11-20T13:31:44;23.77;;;8.85;;
71947;SDS011;63257;55.082;38.772;2022-11-20T13:34:12;18.95;;;7.03;;
71947;SDS011;63257;55.082;38.772;2022-11-20T13:36:51;21.33;;;7.90;;
71947;SDS011;63257;55.082;38.772;2022-11-20T13:39:31;20.42;;;8.32;;
71947;SDS011;63257;55.082;38.772;2022-11-20T13:42:18;22.15;;;8.02;;
71947;SDS011;63257;55.082;38.772;2022-11-20T13:44:53;20.10;;;9.10;;
71947;SDS011;63257;55.082;38.772;2022-11-20T13:47:22;19.90;;;7.78;;
71947;SDS011;63257;55.082;38.772;2022-11-20T13:49:51;23.42;;;9.27;;
71947;SDS011;63257;55.082;38.772;2022-11-20T13:55:23;20.67;;;8.10;;
71947;SDS011;63257;55.082;38.772;2022-11-20T14:00:56;19.52;;;7.65;;
71947;SDS011;63257;55.082;38.772;2022-11-20T14:03:26;22.90;;;8.83;;
71947;SDS011;63257;55.082;38.772;2022-11-20T14:05:56;24.00;;;8.98;;
71947;SDS011;63257;55.082;38.772;2022-11-20T14:08:39;22.75;;;9.52;;
71947;SDS011;63257;55.082;38.772;2022-11-20T14:16:20;20.95;;;8.57;;
71947;SDS011;63257;55.082;38.772;2022-11-20T14:18:48;20.77;;;7.43;;
71947;SDS011;63257;55.082;38.772;2022-11-20T14:24:09;19.52;;;8.13;;
71947;SDS011;63257;55.082;38.772;2022-11-20T14:26:43;20.98;;;8.77;;
71947;SDS011;63257;55.082;38.772;2022-11-20T14:29:15;19.80;;;8.77;;
71947;SDS011;63257;55.082;38.772;2022-11-20T14:31:43;24.75;;;9.45;;
71947;SDS011;63257;55.082;38.772;2022-11-20T14:34:18;22.90;;;8.30;;
71947;SDS011;63257;55.082;38.772;2022-11-20T14:36:47;21.50;;;8.43;;
71947;SDS011;63257;55.082;38.772;2022-11-20T14:39:20;19.27;;;7.75;;
71947;SDS011;63257;55.082;38.772;2022-11-20T14:41:53;19.17;;;7.18;;
71947;SDS011;63257;55.082;38.772;2022-11-20T14:44:20;22.60;;;9.27;;
71947;SDS011;63257;55.082;38.772;2022-11-20T14:46:51;21.73;;;8.60;;
71947;SDS011;63257;55.082;38.772;2022-11-20T14:49:19;21.45;;;8.82;;
71947;SDS011;63257;55.082;38.772;2022-11-20T14:51:45;21.10;;;8.43;;
71947;SDS011;63257;55.082;38.772;2022-11-20T14:54:12;18.43;;;7.67;;
71947;SDS011;63257;55.082;38.772;2022-11-20T14:56:53;20.67;;;9.27;;
71947;SDS011;63257;55.082;38.772;2022-11-20T14:59:26;19.20;;;7.60;;
71947;SDS011;63257;55.082;38.772;2022-11-20T15:01:56;21.35;;;7.90;;
71947;SDS011;63257;55.082;38.772;2022-11-20T15:04:24;25.33;;;8.65;;
71947;SDS011;63257;55.082;38.772;2022-11-20T15:06:51;27.95;;;11.30;;
71947;SDS011;63257;55.082;38.772;2022-11-20T15:09:19;31.67;;;11.18;;
71947;SDS011;63257;55.082;38.772;2022-11-20T15:12:05;35.23;;;11.40;;
71947;SDS011;63257;55.082;38.772;2022-11-20T15:14:31;25.20;;;9.20;;
71947;SDS011;63257;55.082;38.772;2022-11-20T15:16:57;26.33;;;10.25;;
71947;SDS011;63257;55.082;38.772;2022-11-20T15:19:25;33.27;;;10.97;;
71947;SDS011;63257;55.082;38.772;2022-11-20T15:21:52;33.60;;;12.23;;
71947;SDS011;63257;55.082;38.772;2022-11-20T15:24:18;32.90;;;11.05;;
71947;SDS011;63257;55.082;38.772;2022-11-20T15:26:45;31.58;;;10.93;;
71947;SDS011;63257;55.082;38.772;2022-11-20T15:29:12;35.97;;;13.30;;
71947;SDS011;63257;55.082;38.772;2022-11-20T15:31:39;32.65;;;11.77;;
71947;SDS011;63257;55.082;38.772;2022-11-20T15:34:10;34.38;;;11.95;;
71947;SDS011;63257;55.082;38.772;2022-11-20T15:36:38;37.73;;;13.73;;
71947;SDS011;63257;55.082;38.772;2022-11-20T15:39:05;47.30;;;15.30;;
71947;SDS011;63257;55.082;38.772;2022-11-20T15:41:35;39.88;;;13.98;;
71947;SDS011;63257;55.082;38.772;2022-11-20T15:44:01;39.30;;;12.97;;
71947;SDS011;63257;55.082;38.772;2022-11-20T15:46:29;41.70;;;14.07;;
71947;SDS011;63257;55.082;38.772;2022-11-20T15:49:03;36.40;;;11.63;;
71947;SDS011;63257;55.082;38.772;2022-11-20T15:51:31;29.63;;;10.77;;
71947;SDS011;63257;55.082;38.772;2022-11-20T15:54:11;31.20;;;11.20;;
71947;SDS011;63257;55.082;38.772;2022-11-20T15:56:43;40.85;;;14.68;;
71947;SDS011;63257;55.082;38.772;2022-11-20T15:59:09;35.45;;;12.90;;
71947;SDS011;63257;55.082;38.772;2022-11-20T16:01:35;44.10;;;14.27;;
71947;SDS011;63257;55.082;38.772;2022-11-20T16:04:01;44.80;;;15.02;;
71947;SDS011;63257;55.082;38.772;2022-11-20T16:06:27;42.75;;;14.07;;
71947;SDS011;63257;55.082;38.772;2022-11-20T16:08:53;33.80;;;12.23;;
71947;SDS011;63257;55.082;38.772;2022-11-20T16:11:19;45.20;;;13.90;;
71947;SDS011;63257;55.082;38.772;2022-11-20T16:13:45;44.90;;;14.20;;
71947;SDS011;63257;55.082;38.772;2022-11-20T16:16:33;39.33;;;13.32;;
71947;SDS011;63257;55.082;38.772;2022-11-20T16:19:00;35.28;;;12.38;;
71947;SDS011;63257;55.082;38.772;2022-11-20T16:21:27;48.50;;;14.70;;